Time;durP1;ratioP1;P1;durP2;ratioP2;P2;SDS_P1;SDS_P2;PMS_P1;PMS_P2;Temp;Humidity;BMP_temperature;BMP_pressure;BME280_temperature;BME280_humidity;BME280_pressure;Samples;Min_cycle;Max_cycle;Signal;HPM_P1;HPM_P2
2022/03/23 00:01:39;;;;;;;7.53;4.97;;;19.80;61.40;;;;;;7903323;28;20205;-51
2022/03/23 00:05:26;;;;;;;7.80;5.25;;;19.80;61.40;;;;;;7902911;28;20196;-53
2022/03/23 00:09:14;;;;;;;7.72;4.97;;;19.80;61.50;;;;;;7902397;28;20681;-52
2022/03/23 00:12:59;;;;;;;6.10;4.82;;;19.80;61.50;;;;;;7902854;28;20678;-51
2022/03/23 00:16:45;;;;;;;6.13;4.70;;;19.80;61.60;;;;;;7902685;28;20224;-51
2022/03/23 00:20:31;;;;;;;8.40;5.50;;;19.70;61.60;;;;;;7902214;28;20209;-49
2022/03/23 00:24:17;;;;;;;7.05;4.78;;;19.70;61.70;;;;;;7902443;28;20197;-51
2022/03/23 00:28:04;;;;;;;6.47;4.43;;;19.70;61.80;;;;;;7902393;28;20251;-49
2022/03/23 00:31:50;;;;;;;7.03;4.72;;;19.70;61.80;;;;;;7902252;28;20275;-49
2022/03/23 00:35:36;;;;;;;6.20;4.63;;;19.70;61.90;;;;;;7902959;28;20184;-49
2022/03/23 00:39:22;;;;;;;7.50;5.00;;;19.70;61.80;;;;;;7901861;28;20196;-52
2022/03/23 00:43:08;;;;;;;7.03;4.82;;;19.70;61.90;;;;;;7901929;28;20564;-50
2022/03/23 00:46:53;;;;;;;6.38;4.88;;;19.70;61.80;;;;;;7902026;28;20195;-51
2022/03/23 00:50:39;;;;;;;8.15;5.20;;;19.70;61.80;;;;;;7867009;28;1010275;-49
2022/03/23 00:54:25;;;;;;;6.90;5.47;;;19.70;61.80;;;;;;7903785;28;20327;-48
2022/03/23 00:58:11;;;;;;;6.40;4.78;;;19.70;61.70;;;;;;7903444;28;20210;-49
2022/03/23 01:01:56;;;;;;;9.40;4.65;;;19.70;61.70;;;;;;7902914;28;20693;-51
2022/03/23 01:05:42;;;;;;;7.72;4.68;;;19.70;61.80;;;;;;7903025;28;20295;-48
2022/03/23 01:09:27;;;;;;;6.68;5.07;;;19.60;61.90;;;;;;7902645;28;20184;-48
2022/03/23 01:13:13;;;;;;;7.03;4.75;;;19.60;61.80;;;;;;7902729;28;20200;-49
2022/03/23 01:16:58;;;;;;;7.60;4.68;;;19.60;61.90;;;;;;7902615;28;20196;-49
2022/03/23 01:20:44;;;;;;;7.82;5.15;;;19.60;62.00;;;;;;7901402;28;20205;-49
2022/03/23 01:24:29;;;;;;;7.05;5.38;;;19.60;62.00;;;;;;7902369;28;20203;-49
2022/03/23 01:28:15;;;;;;;7.75;4.88;;;19.60;62.10;;;;;;7902291;28;20180;-48
2022/03/23 01:32:00;;;;;;;7.60;4.63;;;19.60;62.40;;;;;;7901872;28;20176;-49
2022/03/23 01:35:46;;;;;;;5.72;4.30;;;19.60;62.50;;;;;;7902327;28;20685;-51
2022/03/23 01:39:31;;;;;;;9.93;5.22;;;19.60;62.40;;;;;;7901597;28;20200;-53
2022/03/23 01:43:17;;;;;;;8.88;5.00;;;19.60;62.20;;;;;;7901794;28;20188;-48
2022/03/23 01:47:09;;;;;;;7.10;4.85;;;19.60;62.30;;;;;;7901722;28;20181;-50
2022/03/23 01:50:55;;;;;;;8.18;4.88;;;19.60;62.20;;;;;;7901260;28;20207;-48
2022/03/23 01:54:42;;;;;;;7.35;5.00;;;19.60;62.10;;;;;;7900845;28;20193;-48
2022/03/23 01:58:27;;;;;;;7.72;4.95;;;19.60;62.20;;;;;;7901516;28;20219;-49
2022/03/23 02:02:13;;;;;;;6.97;4.95;;;19.50;62.20;;;;;;7901066;28;20200;-49
2022/03/23 02:05:58;;;;;;;6.15;4.93;;;19.60;62.20;;;;;;7901388;28;20177;-49
2022/03/23 02:09:45;;;;;;;6.63;4.88;;;19.50;62.20;;;;;;7901062;28;20269;-52
2022/03/23 02:13:30;;;;;;;6.35;4.78;;;19.50;62.10;;;;;;7901452;28;20196;-54
2022/03/23 02:17:15;;;;;;;6.85;5.15;;;19.50;62.00;;;;;;7901697;28;20259;-49
2022/03/23 02:21:01;;;;;;;8.70;4.82;;;19.50;62.00;;;;;;7900782;28;20250;-48
2022/03/23 02:24:48;;;;;;;8.45;5.78;;;19.50;62.00;;;;;;7900889;28;20196;-55
2022/03/23 02:28:35;;;;;;;7.93;4.85;;;19.50;61.90;;;;;;7900871;28;20182;-50
2022/03/23 02:32:20;;;;;;;7.30;5.47;;;19.50;61.90;;;;;;7900170;28;20220;-53
2022/03/23 02:36:06;;;;;;;10.68;5.13;;;19.50;61.90;;;;;;7900825;28;20173;-49
2022/03/23 02:39:51;;;;;;;6.80;5.28;;;19.50;62.00;;;;;;7900558;28;20215;-49
2022/03/23 02:43:37;;;;;;;7.22;5.10;;;19.50;62.00;;;;;;7900343;28;20196;-50
2022/03/23 02:47:22;;;;;;;6.32;5.10;;;19.50;61.90;;;;;;7900397;28;20255;-48
2022/03/23 02:51:08;;;;;;;6.28;4.85;;;19.40;61.70;;;;;;7900083;28;20191;-49
2022/03/23 03:03:37;;;;;;;7.40;5.13;;;19.40;61.70;;;;;;7899815;28;20197;-48
2022/03/23 03:07:22;;;;;;;6.05;5.15;;;19.40;61.60;;;;;;7900186;28;20238;-49
2022/03/23 03:11:08;;;;;;;6.40;4.80;;;19.40;61.60;;;;;;7899821;28;20175;-49
2022/03/23 03:14:54;;;;;;;7.78;5.25;;;19.40;61.50;;;;;;7899932;28;20599;-48
2022/03/23 03:18:39;;;;;;;8.43;5.25;;;19.40;61.70;;;;;;7899900;28;20680;-48
2022/03/23 03:22:25;;;;;;;9.57;5.13;;;19.40;61.60;;;;;;7899606;28;20234;-50
2022/03/23 03:26:12;;;;;;;6.93;5.07;;;19.30;61.70;;;;;;7900021;28;20627;-49
2022/03/23 03:29:57;;;;;;;7.78;5.07;;;19.30;61.60;;;;;;7899574;28;20208;-48
2022/03/23 03:33:44;;;;;;;7.20;5.28;;;19.30;61.70;;;;;;7899710;28;20658;-49
2022/03/23 03:37:30;;;;;;;6.47;5.07;;;19.30;61.50;;;;;;7899778;28;20181;-49
2022/03/23 03:41:16;;;;;;;7.60;5.45;;;19.30;61.50;;;;;;7899358;28;20212;-51
2022/03/23 03:45:05;;;;;;;7.35;5.47;;;19.30;61.30;;;;;;7903710;28;20196;-49
2022/03/23 03:48:50;;;;;;;6.70;5.60;;;19.30;61.30;;;;;;7905330;28;20191;-49
2022/03/23 03:52:35;;;;;;;8.45;5.95;;;19.30;61.30;;;;;;7905040;28;20189;-49
2022/03/23 03:56:21;;;;;;;8.93;5.80;;;19.30;61.30;;;;;;7905093;28;20191;-49
2022/03/23 04:00:07;;;;;;;9.30;6.25;;;19.30;61.30;;;;;;7904608;28;20261;-52
2022/03/23 04:03:52;;;;;;;8.40;6.63;;;19.30;61.20;;;;;;7904934;28;20219;-49
2022/03/23 04:07:38;;;;;;;11.20;7.50;;;19.30;61.20;;;;;;7904755;28;20169;-49
2022/03/23 04:11:23;;;;;;;10.55;6.93;;;19.30;61.20;;;;;;7904681;28;20208;-50
2022/03/23 04:15:09;;;;;;;10.73;7.47;;;19.20;61.10;;;;;;7904473;28;20192;-49
2022/03/23 04:18:54;;;;;;;10.18;7.07;;;19.20;61.20;;;;;;7904411;28;20200;-48
2022/03/23 04:22:40;;;;;;;10.45;6.97;;;19.20;61.20;;;;;;7904036;28;20228;-51
2022/03/23 04:26:26;;;;;;;9.35;7.28;;;19.20;61.10;;;;;;7904216;28;20173;-49
2022/03/23 04:30:12;;;;;;;9.77;7.45;;;19.20;61.00;;;;;;7904214;28;20321;-53
2022/03/23 04:33:58;;;;;;;9.77;7.40;;;19.20;60.90;;;;;;7904054;28;20274;-53
2022/03/23 04:37:44;;;;;;;10.18;6.60;;;19.20;60.90;;;;;;7904068;28;20181;-49
2022/03/23 04:41:29;;;;;;;9.63;7.20;;;19.20;61.00;;;;;;7903639;28;20208;-48
2022/03/23 04:45:15;;;;;;;9.95;7.05;;;19.20;60.80;;;;;;7903908;28;20197;-49
2022/03/23 04:49:01;;;;;;;10.32;6.93;;;19.20;60.80;;;;;;7903740;28;20188;-50
2022/03/23 04:52:48;;;;;;;9.48;6.88;;;19.20;61.00;;;;;;7903135;28;20269;-51
2022/03/23 04:56:33;;;;;;;9.80;6.93;;;19.20;61.00;;;;;;7902048;28;20173;-48
2022/03/23 05:00:20;;;;;;;8.55;6.25;;;19.20;60.70;;;;;;7902994;28;20239;-52
2022/03/23 05:04:06;;;;;;;12.10;6.72;;;19.30;60.70;;;;;;7919028;28;20208;-48
2022/03/23 05:07:52;;;;;;;13.95;6.97;;;19.30;61.20;;;;;;7933790;28;20172;-49
2022/03/23 05:11:37;;;;;;;9.00;6.63;;;19.30;60.90;;;;;;7922689;28;20223;-49
2022/03/23 05:15:23;;;;;;;11.38;6.35;;;19.30;60.50;;;;;;7900997;28;20283;-49
2022/03/23 05:19:09;;;;;;;19.23;6.85;;;19.30;60.40;;;;;;7918109;28;20826;-55
2022/03/23 05:22:54;;;;;;;12.80;6.53;;;19.30;61.00;;;;;;7913360;28;20681;-48
2022/03/23 05:26:40;;;;;;;11.57;7.00;;;19.30;60.50;;;;;;7902934;28;20181;-52
2022/03/23 05:30:25;;;;;;;13.35;7.30;;;19.30;60.70;;;;;;7903425;28;20196;-49
2022/03/23 05:34:11;;;;;;;14.38;6.85;;;19.30;60.90;;;;;;7908952;28;20248;-49
2022/03/23 05:37:56;;;;;;;11.13;6.35;;;19.30;60.90;;;;;;7909080;27;20184;-52
2022/03/23 05:41:42;;;;;;;27.60;6.53;;;19.30;61.30;;;;;;7929430;28;20215;-49
2022/03/23 05:45:27;;;;;;;20.48;6.40;;;19.40;62.00;;;;;;7932230;28;20395;-53
2022/03/23 05:49:14;;;;;;;12.93;6.15;;;19.40;61.60;;;;;;7916750;28;20228;-52
2022/03/23 05:52:59;;;;;;;14.10;6.72;;;19.40;61.10;;;;;;7900414;28;20780;-51
2022/03/23 05:56:45;;;;;;;10.13;6.15;;;19.40;61.00;;;;;;7900686;28;20540;-48
2022/03/23 06:00:31;;;;;;;9.93;6.00;;;19.40;61.10;;;;;;7900355;28;20311;-48
2022/03/23 06:04:16;;;;;;;11.98;6.13;;;19.40;61.10;;;;;;7900135;28;20565;-49
2022/03/23 06:08:02;;;;;;;13.18;6.20;;;19.50;61.20;;;;;;7900598;28;20181;-54
2022/03/23 06:11:48;;;;;;;8.73;6.10;;;19.50;61.40;;;;;;7900401;28;20794;-48
2022/03/23 06:15:33;;;;;;;10.52;6.50;;;19.40;61.30;;;;;;7900025;28;20232;-50
2022/03/23 06:19:19;;;;;;;10.85;6.30;;;19.50;61.40;;;;;;7916968;28;20216;-50
2022/03/23 06:23:05;;;;;;;12.85;5.40;;;19.50;62.00;;;;;;7931463;28;20244;-48
2022/03/23 06:26:51;;;;;;;10.18;6.60;;;19.50;61.70;;;;;;7931985;28;20187;-50
2022/03/23 06:30:36;;;;;;;12.38;5.50;;;19.50;61.40;;;;;;7931082;28;20176;-48
2022/03/23 06:34:22;;;;;;;10.68;5.88;;;19.50;61.40;;;;;;7913580;28;20881;-49
2022/03/23 06:38:07;;;;;;;15.32;5.95;;;19.50;61.70;;;;;;7902026;28;20168;-50
2022/03/23 06:41:53;;;;;;;14.50;5.78;;;19.50;61.90;;;;;;7930406;28;20211;-53
2022/03/23 06:45:40;;;;;;;13.13;6.15;;;19.50;62.50;;;;;;7930405;28;20565;-48
2022/03/23 06:49:26;;;;;;;10.20;5.82;;;19.60;62.30;;;;;;7912046;28;20208;-50
2022/03/23 06:53:11;;;;;;;9.40;5.85;;;19.60;62.00;;;;;;7898827;28;20200;-51
2022/03/23 06:56:57;;;;;;;18.52;6.18;;;19.60;62.00;;;;;;7899474;28;20650;-48
2022/03/23 07:00:42;;;;;;;8.52;5.18;;;19.70;62.40;;;;;;7898887;28;20334;-48
2022/03/23 07:04:28;;;;;;;9.55;5.30;;;19.70;62.30;;;;;;7918042;28;20894;-49
2022/03/23 07:12:20;;;;;;;12.82;5.65;;;19.80;62.00;;;;;;7930246;28;20180;-51
2022/03/23 07:16:05;;;;;;;19.30;5.40;;;19.90;62.80;;;;;;7930618;28;20565;-48
2022/03/23 07:19:51;;;;;;;13.07;6.05;;;20.00;62.70;;;;;;7911408;28;20312;-51
2022/03/23 07:23:37;;;;;;;12.65;5.63;;;20.00;62.30;;;;;;7904982;28;20272;-48
2022/03/23 07:27:24;;;;;;;9.90;5.68;;;20.00;62.10;;;;;;7905388;28;20196;-49
2022/03/23 07:31:09;;;;;;;12.88;5.07;;;20.10;62.00;;;;;;7904682;28;20183;-48
2022/03/23 07:34:54;;;;;;;14.00;5.25;;;20.10;62.70;;;;;;7928475;28;20291;-48
2022/03/23 07:38:40;;;;;;;13.63;5.72;;;20.20;62.50;;;;;;7936547;28;20215;-51
2022/03/23 07:42:26;;;;;;;11.80;5.32;;;20.20;62.20;;;;;;7933224;28;20208;-47
2022/03/23 07:46:11;;;;;;;15.10;5.10;;;20.20;62.10;;;;;;7926993;28;20252;-48
2022/03/23 07:49:57;;;;;;;8.73;5.25;;;20.30;62.70;;;;;;7904325;28;20670;-55
2022/03/23 07:53:42;;;;;;;9.90;4.80;;;20.30;62.40;;;;;;7905478;28;20189;-49
2022/03/23 07:57:28;;;;;;;7.82;4.72;;;20.30;62.40;;;;;;7904312;28;20554;-48
2022/03/23 08:01:15;;;;;;;8.50;5.20;;;20.30;62.40;;;;;;7904274;28;20281;-50
2022/03/23 08:05:00;;;;;;;13.63;5.57;;;20.30;62.20;;;;;;7905627;28;20196;-50
2022/03/23 08:08:46;;;;;;;8.65;4.95;;;20.40;62.40;;;;;;7903174;28;20184;-48
2022/03/23 08:12:31;;;;;;;13.05;5.78;;;20.40;62.50;;;;;;7902682;28;20277;-52
2022/03/23 08:16:17;;;;;;;8.18;5.20;;;20.40;62.30;;;;;;7911989;28;20180;-48
2022/03/23 08:24:08;;;;;;;9.40;5.35;;;20.40;62.00;;;;;;7902985;28;20671;-51
2022/03/23 08:27:55;;;;;;;14.02;4.45;;;20.40;62.10;;;;;;7903572;28;20172;-48
2022/03/23 08:31:41;;;;;;;9.57;5.25;;;20.50;62.10;;;;;;7902727;28;20184;-50
2022/03/23 08:35:26;;;;;;;10.70;5.15;;;20.50;62.20;;;;;;7902369;28;20234;-48
2022/03/23 08:39:12;;;;;;;10.45;4.63;;;20.50;62.20;;;;;;7902675;28;20200;-51
2022/03/23 08:42:58;;;;;;;5.80;5.05;;;20.50;62.10;;;;;;7902538;28;20196;-49
2022/03/23 08:46:44;;;;;;;9.45;4.80;;;20.50;62.50;;;;;;7902446;28;20161;-49
2022/03/23 08:50:31;;;;;;;9.07;4.80;;;20.60;62.50;;;;;;7914095;28;20188;-52
2022/03/23 08:54:16;;;;;;;23.80;5.00;;;20.60;63.10;;;;;;7933603;28;20331;-50
2022/03/23 08:58:02;;;;;;;12.95;4.97;;;20.60;62.40;;;;;;7929511;28;20183;-51
2022/03/23 09:01:48;;;;;;;15.43;4.93;;;20.60;63.00;;;;;;7933850;28;20211;-48
2022/03/23 09:05:34;;;;;;;7.80;4.43;;;20.60;62.70;;;;;;7902774;28;20258;-48
2022/03/23 09:09:19;;;;;;;6.78;4.43;;;20.60;62.60;;;;;;7923349;28;20188;-48
2022/03/23 09:13:05;;;;;;;14.93;5.00;;;20.70;62.60;;;;;;7901648;28;20207;-52
2022/03/23 09:16:50;;;;;;;10.85;4.85;;;20.70;63.70;;;;;;7916536;28;20188;-49
2022/03/23 09:20:37;;;;;;;4.70;3.90;;;20.70;63.40;;;;;;7901696;28;20248;-49
2022/03/23 09:24:25;;;;;;;8.93;4.63;;;20.70;63.10;;;;;;7901252;28;20201;-48
2022/03/23 09:28:11;;;;;;;8.70;4.75;;;20.70;63.00;;;;;;7902016;28;20180;-48
2022/03/23 09:31:56;;;;;;;9.80;4.68;;;20.70;62.80;;;;;;7900998;28;20777;-48
2022/03/23 09:35:42;;;;;;;5.88;4.20;;;20.70;62.90;;;;;;7900485;28;20563;-49
2022/03/23 09:39:27;;;;;;;7.57;4.20;;;20.70;63.10;;;;;;7900891;28;20196;-52
2022/03/23 09:43:14;;;;;;;7.93;4.43;;;20.70;63.00;;;;;;7919442;28;20199;-48
2022/03/23 09:47:01;;;;;;;6.65;4.55;;;20.70;63.10;;;;;;7913787;28;20260;-52
2022/03/23 09:50:50;;;;;;;15.90;4.55;;;20.70;63.10;;;;;;7900287;28;20543;-51
2022/03/23 09:54:35;;;;;;;12.38;4.93;;;20.70;63.00;;;;;;7900225;28;20200;-52
2022/03/23 09:58:21;;;;;;;9.43;4.28;;;20.70;63.20;;;;;;7899375;28;20195;-53
2022/03/23 10:02:25;;;;;;;7.70;4.50;;;20.80;63.00;;;;;;7902690;28;20243;-52
2022/03/23 10:06:49;;;;;;;10.18;4.45;;;20.80;62.80;;;;;;7929449;28;20595;-49
2022/03/23 10:11:12;;;;;;;9.00;4.45;;;20.70;62.40;;;;;;7931656;28;20178;-49
2022/03/23 10:15:54;;;;;;;12.50;4.90;;;20.70;62.80;;;;;;7916724;27;20200;-52
2022/03/23 10:19:44;;;;;;;7.00;4.00;;;20.70;63.20;;;;;;7924217;28;20203;-50
2022/03/23 10:23:30;;;;;;;16.70;4.20;;;20.80;63.20;;;;;;7914332;28;20290;-52
2022/03/23 10:27:22;;;;;;;17.00;4.28;;;20.70;63.90;;;;;;7931273;28;20172;-49
2022/03/23 10:31:19;;;;;;;13.68;5.55;;;20.70;63.90;;;;;;7931336;27;20709;-48
2022/03/23 10:35:12;;;;;;;20.25;4.65;;;20.80;63.90;;;;;;7902277;28;20199;-49
2022/03/23 10:39:02;;;;;;;19.40;6.88;;;20.70;64.20;;;;;;7901537;28;20280;-50
2022/03/23 10:42:50;;;;;;;22.42;7.20;;;20.80;63.90;;;;;;7930849;28;20773;-49
2022/03/23 10:46:40;;;;;;;47.58;18.08;;;20.80;64.20;;;;;;7930561;28;20176;-51
2022/03/23 10:50:29;;;;;;;97.53;44.85;;;20.80;64.80;;;;;;7899329;28;20199;-50
2022/03/23 10:54:20;;;;;;;57.80;26.10;;;20.70;63.90;;;;;;7903682;28;20814;-48
2022/03/23 10:58:06;;;;;;;77.20;32.30;;;20.70;65.10;;;;;;7906142;28;20173;-50
2022/03/23 11:01:57;;;;;;;67.50;29.58;;;20.70;64.20;;;;;;7929005;28;20207;-51
2022/03/23 11:05:46;;;;;;;44.00;17.88;;;20.70;64.00;;;;;;7909018;28;20192;-49
2022/03/23 11:17:45;;;;;;;44.17;16.83;;;20.80;64.70;;;;;;7905917;28;20192;-49
2022/03/23 11:21:30;;;;;;;41.72;15.80;;;20.80;64.40;;;;;;7916298;28;20410;-51
2022/03/23 11:25:16;;;;;;;36.78;15.10;;;20.80;64.40;;;;;;7905242;28;20263;-51
2022/03/23 11:29:02;;;;;;;26.33;12.07;;;20.70;64.60;;;;;;7904798;28;20176;-49
2022/03/23 11:32:49;;;;;;;31.80;12.85;;;20.70;64.80;;;;;;7904927;28;20823;-48
2022/03/23 11:36:35;;;;;;;28.60;13.98;;;20.70;64.80;;;;;;7913004;28;20202;-49
2022/03/23 11:40:20;;;;;;;25.55;12.45;;;20.70;64.50;;;;;;7936205;28;20200;-49
2022/03/23 11:44:06;;;;;;;50.08;16.27;;;20.70;64.50;;;;;;7929303;28;20279;-49
2022/03/23 11:48:01;;;;;;;40.83;13.60;;;20.70;63.10;;;;;;7904307;28;20249;-50
2022/03/23 11:52:16;;;;;;;36.90;14.25;;;20.70;63.40;;;;;;7909597;28;20203;-52
2022/03/23 11:56:03;;;;;;;32.55;13.40;;;20.70;63.40;;;;;;7904052;28;20180;-51
2022/03/23 11:59:48;;;;;;;35.75;11.73;;;20.70;64.20;;;;;;7903793;28;20672;-48
2022/03/23 12:03:53;;;;;;;31.33;11.68;;;20.60;63.70;;;;;;7915024;28;20192;-48
2022/03/23 12:07:46;;;;;;;23.38;10.93;;;20.60;63.30;;;;;;7921498;28;20187;-50
2022/03/23 12:11:43;;;;;;;26.13;11.13;;;20.70;64.10;;;;;;7935348;28;20213;-48
2022/03/23 12:15:31;;;;;;;23.33;10.80;;;20.60;63.80;;;;;;7935424;28;20191;-49
2022/03/23 12:19:28;;;;;;;28.83;10.63;;;20.60;64.10;;;;;;7934620;28;20246;-52
2022/03/23 12:23:36;;;;;;;28.00;9.98;;;20.60;64.10;;;;;;7911948;28;20655;-51
2022/03/23 12:27:49;;;;;;;22.63;9.18;;;20.60;64.20;;;;;;7903154;28;20583;-51
2022/03/23 12:31:37;;;;;;;20.13;9.32;;;20.70;64.20;;;;;;7902992;28;20180;-53
2022/03/23 12:35:36;;;;;;;19.17;9.18;;;20.70;64.20;;;;;;7915418;28;20212;-49
2022/03/23 12:39:27;;;;;;;19.55;8.57;;;20.70;65.50;;;;;;7902632;28;20232;-51
2022/03/23 12:43:43;;;;;;;26.17;9.25;;;20.70;64.80;;;;;;7903040;28;20674;-48
2022/03/23 12:47:31;;;;;;;16.88;8.38;;;20.70;64.50;;;;;;7902743;28;20229;-49
2022/03/23 12:59:35;;;;;;;18.55;8.30;;;20.80;65.80;;;;;;7934162;28;20633;-51
2022/03/23 13:03:22;;;;;;;18.15;6.85;;;20.80;65.00;;;;;;7934182;28;20241;-52
2022/03/23 13:07:29;;;;;;;20.40;7.85;;;20.80;65.30;;;;;;7919558;28;20173;-49
2022/03/23 13:11:26;;;;;;;18.95;6.60;;;20.80;65.40;;;;;;7901110;28;20268;-51
2022/03/23 13:15:18;;;;;;;16.98;6.70;;;20.80;65.70;;;;;;7901278;28;20204;-50
2022/03/23 13:19:05;;;;;;;20.00;7.88;;;20.80;65.10;;;;;;7901328;28;20179;-49
2022/03/23 13:22:53;;;;;;;15.15;7.15;;;20.80;65.30;;;;;;7919397;28;20265;-48
2022/03/23 13:26:40;;;;;;;21.75;8.52;;;20.70;65.40;;;;;;7915477;28;20164;-49
2022/03/23 13:30:28;;;;;;;19.75;7.38;;;20.80;64.70;;;;;;7917302;28;20184;-51
2022/03/23 13:34:15;;;;;;;20.98;6.78;;;20.80;65.20;;;;;;7901429;28;20211;-51
2022/03/23 13:38:04;;;;;;;14.55;6.40;;;20.80;66.10;;;;;;7923946;28;20657;-48
2022/03/23 13:45:56;;;;;;;15.10;6.50;;;20.80;67.00;;;;;;7932267;28;20254;-51
2022/03/23 13:49:44;;;;;;;12.55;6.00;;;20.90;67.20;;;;;;7932155;28;20240;-49
2022/03/23 13:53:29;;;;;;;11.10;5.80;;;20.90;67.80;;;;;;7905332;28;20212;-50
2022/03/23 13:57:15;;;;;;;10.77;5.68;;;20.90;67.20;;;;;;7900452;28;20703;-49
2022/03/23 14:01:02;;;;;;;14.80;6.35;;;20.90;67.80;;;;;;7900181;28;20204;-49
2022/03/23 14:04:48;;;;;;;12.82;5.25;;;20.90;68.00;;;;;;7910903;28;20204;-49
2022/03/23 14:08:40;;;;;;;13.18;6.00;;;20.90;68.10;;;;;;7924787;28;20211;-49
2022/03/23 14:12:25;;;;;;;12.80;5.30;;;20.90;68.10;;;;;;7931384;28;20180;-50
2022/03/23 14:16:11;;;;;;;12.98;5.88;;;20.90;68.00;;;;;;7931470;28;20183;-49
2022/03/23 14:19:58;;;;;;;10.18;5.78;;;20.90;67.80;;;;;;7919670;28;20256;-49
2022/03/23 14:23:45;;;;;;;14.05;6.28;;;20.90;67.40;;;;;;7921736;28;20295;-50
2022/03/23 14:27:39;;;;;;;14.60;5.78;;;20.90;67.80;;;;;;7901775;28;20245;-52
2022/03/23 14:31:25;;;;;;;19.30;6.03;;;20.90;66.70;;;;;;7900502;28;20554;-49
2022/03/23 14:35:13;;;;;;;15.63;5.45;;;20.90;65.20;;;;;;7900706;28;20223;-54
2022/03/23 14:38:59;;;;;;;11.50;5.57;;;20.90;65.50;;;;;;7900829;28;20184;-49
2022/03/23 14:42:44;;;;;;;15.95;5.78;;;20.90;65.80;;;;;;7900510;28;20201;-54
2022/03/23 14:46:30;;;;;;;12.63;5.55;;;20.90;66.10;;;;;;7900705;28;20188;-51
2022/03/23 14:50:15;;;;;;;13.57;5.82;;;20.80;66.30;;;;;;7900179;28;20649;-48
2022/03/23 14:54:04;;;;;;;9.88;5.00;;;20.90;65.80;;;;;;7900234;28;20254;-53
2022/03/23 14:57:50;;;;;;;9.82;5.45;;;20.80;65.50;;;;;;7900260;28;20164;-51
2022/03/23 15:01:37;;;;;;;16.15;5.50;;;20.90;65.50;;;;;;7899870;28;20693;-54
2022/03/23 15:13:30;;;;;;;14.05;5.65;;;20.90;65.40;;;;;;7897511;28;20197;-50
2022/03/23 15:17:16;;;;;;;12.82;5.93;;;20.80;65.00;;;;;;7900638;28;20186;-49
2022/03/23 15:21:02;;;;;;;20.77;5.53;;;20.80;64.70;;;;;;7899783;28;20700;-55
2022/03/23 15:24:48;;;;;;;20.40;5.68;;;20.80;65.40;;;;;;7907403;28;20549;-52
2022/03/23 15:28:33;;;;;;;14.00;4.90;;;20.80;65.60;;;;;;7912064;28;20530;-49
2022/03/23 15:32:19;;;;;;;10.45;5.30;;;20.80;65.20;;;;;;7931600;28;20172;-50
2022/03/23 15:36:07;;;;;;;22.77;5.97;;;20.80;65.50;;;;;;7930160;28;20187;-49
2022/03/23 15:39:53;;;;;;;16.33;5.40;;;20.80;64.60;;;;;;7931550;28;20294;-51
2022/03/23 15:43:53;;;;;;;16.10;5.45;;;20.80;64.10;;;;;;7934051;28;20191;-49
2022/03/23 15:47:38;;;;;;;15.85;5.05;;;20.80;63.90;;;;;;7930783;28;20220;-49
2022/03/23 15:51:25;;;;;;;12.20;5.82;;;20.70;63.80;;;;;;7933844;28;20242;-51
2022/03/23 15:55:10;;;;;;;13.00;5.43;;;20.80;63.90;;;;;;7935770;28;20204;-51
2022/03/23 15:58:56;;;;;;;11.20;5.57;;;20.80;63.90;;;;;;7936950;27;20227;-49
2022/03/23 16:02:42;;;;;;;20.75;5.53;;;20.70;64.10;;;;;;7936451;28;20211;-49
2022/03/23 16:06:30;;;;;;;16.05;5.70;;;20.70;64.10;;;;;;7936677;28;20176;-49
2022/03/23 16:10:17;;;;;;;9.55;4.88;;;20.70;63.90;;;;;;7936597;28;20172;-49
2022/03/23 16:14:02;;;;;;;8.98;5.60;;;20.70;64.00;;;;;;7936325;28;20205;-50
2022/03/23 16:17:48;;;;;;;20.73;5.38;;;20.70;63.90;;;;;;7934510;28;20180;-50
2022/03/23 16:21:33;;;;;;;26.97;5.70;;;20.70;64.70;;;;;;7932774;28;20435;-48
2022/03/23 16:25:19;;;;;;;30.40;5.80;;;20.60;65.40;;;;;;7909401;28;20242;-50
2022/03/23 16:29:04;;;;;;;35.50;6.60;;;20.60;65.00;;;;;;7926987;28;20184;-47
2022/03/23 16:32:54;;;;;;;19.33;5.47;;;20.70;65.10;;;;;;7901120;28;20193;-48
2022/03/23 16:36:39;;;;;;;23.88;5.68;;;20.80;64.20;;;;;;7901371;28;20735;-50
2022/03/23 16:40:25;;;;;;;22.55;5.55;;;20.80;63.90;;;;;;7901184;28;20543;-47
2022/03/23 16:44:12;;;;;;;15.80;6.10;;;20.80;64.00;;;;;;7901319;28;20200;-48
2022/03/23 16:47:58;;;;;;;20.85;6.30;;;20.80;63.80;;;;;;7904061;28;20173;-47
2022/03/23 16:51:46;;;;;;;18.88;5.90;;;20.80;63.80;;;;;;7903501;28;20188;-50
2022/03/23 16:55:31;;;;;;;19.33;5.60;;;20.80;63.80;;;;;;7929190;28;20253;-47
2022/03/23 16:59:20;;;;;;;13.23;6.00;;;20.80;63.80;;;;;;7935022;27;20633;-48
2022/03/23 17:15:18;;;;;;;18.13;5.35;;;20.80;63.80;;;;;;7903127;28;20197;-49
2022/03/23 17:19:05;;;;;;;12.27;5.35;;;20.70;63.70;;;;;;7903129;28;20739;-47
2022/03/23 17:22:50;;;;;;;9.48;5.38;;;20.70;63.70;;;;;;7902437;28;20208;-49
2022/03/23 17:26:37;;;;;;;16.25;5.25;;;20.70;63.90;;;;;;7902997;28;20176;-47
2022/03/23 17:30:23;;;;;;;17.48;5.65;;;20.70;63.80;;;;;;7902374;28;20173;-48
2022/03/23 17:34:08;;;;;;;14.80;6.40;;;20.70;63.80;;;;;;7902348;28;20211;-47
2022/03/23 17:37:54;;;;;;;19.42;6.20;;;20.70;63.90;;;;;;7902055;28;20201;-48
2022/03/23 17:41:39;;;;;;;12.18;5.80;;;20.60;63.70;;;;;;7901765;28;20569;-48
2022/03/23 17:45:25;;;;;;;13.65;6.22;;;20.60;63.70;;;;;;7901971;28;20561;-47
2022/03/23 17:49:10;;;;;;;12.43;5.68;;;20.60;63.60;;;;;;7910094;28;20760;-48
2022/03/23 17:52:56;;;;;;;14.88;5.65;;;20.60;63.70;;;;;;7933329;28;20602;-47
2022/03/23 17:56:43;;;;;;;13.68;6.25;;;20.60;63.90;;;;;;7933206;28;20187;-50
2022/03/23 18:00:28;;;;;;;23.35;6.50;;;20.60;64.00;;;;;;7933087;28;20204;-47
2022/03/23 18:04:14;;;;;;;27.42;6.70;;;20.60;63.90;;;;;;7932451;28;20191;-48
2022/03/23 18:07:59;;;;;;;18.98;5.97;;;20.60;64.20;;;;;;7932853;28;20168;-49
2022/03/23 18:11:45;;;;;;;23.52;6.30;;;20.60;64.00;;;;;;7932559;28;20663;-48
2022/03/23 18:15:31;;;;;;;27.40;6.60;;;20.60;64.00;;;;;;7933201;28;20196;-48
2022/03/23 18:19:18;;;;;;;17.42;6.03;;;20.60;63.90;;;;;;7932522;28;20183;-47
2022/03/23 18:23:04;;;;;;;24.08;7.10;;;20.50;63.70;;;;;;7932594;28;20204;-47
2022/03/23 18:26:50;;;;;;;12.15;5.60;;;20.50;63.70;;;;;;7932807;28;20701;-50
2022/03/23 18:30:35;;;;;;;17.92;5.95;;;20.50;63.70;;;;;;7932441;28;20743;-47
2022/03/23 18:34:21;;;;;;;17.80;6.70;;;20.50;63.90;;;;;;7932413;28;20558;-50
2022/03/23 18:38:06;;;;;;;14.90;6.50;;;20.50;63.80;;;;;;7932777;28;20173;-47
2022/03/23 18:41:53;;;;;;;13.38;6.07;;;20.50;63.70;;;;;;7932115;28;20211;-48
2022/03/23 18:45:38;;;;;;;20.30;6.43;;;20.40;63.80;;;;;;7932229;28;20185;-48
2022/03/23 18:49:24;;;;;;;20.38;5.95;;;20.40;64.00;;;;;;7931229;28;20199;-49
2022/03/23 18:53:09;;;;;;;16.38;6.22;;;20.40;64.30;;;;;;7905496;28;20198;-47
2022/03/23 18:56:55;;;;;;;16.60;6.25;;;20.40;64.00;;;;;;7900491;28;20172;-49
2022/03/23 19:00:40;;;;;;;19.38;6.38;;;20.40;63.80;;;;;;7900210;28;20207;-49
2022/03/23 19:04:26;;;;;;;15.68;6.00;;;20.40;63.70;;;;;;7900515;28;20636;-47
2022/03/23 19:08:13;;;;;;;11.52;6.20;;;20.40;63.80;;;;;;7900062;28;20279;-50
2022/03/23 19:11:58;;;;;;;14.82;6.80;;;20.30;63.80;;;;;;7899998;28;20173;-49
2022/03/23 19:15:44;;;;;;;13.65;7.53;;;20.30;63.70;;;;;;7904271;28;20203;-51
2022/03/23 19:19:34;;;;;;;13.60;6.78;;;20.30;63.50;;;;;;7906304;28;20180;-50
2022/03/23 19:23:19;;;;;;;13.55;6.80;;;20.30;63.60;;;;;;7906280;28;20212;-48
2022/03/23 19:27:06;;;;;;;13.50;6.97;;;20.30;63.50;;;;;;7907531;28;20222;-48
2022/03/23 19:30:52;;;;;;;16.88;6.90;;;20.30;63.50;;;;;;7905822;28;20623;-49
2022/03/23 19:34:37;;;;;;;21.30;8.27;;;20.30;63.50;;;;;;7905816;28;20196;-48
2022/03/23 19:38:28;;;;;;;17.67;6.65;;;20.30;63.40;;;;;;7906195;28;20858;-48
2022/03/23 19:42:13;;;;;;;11.82;6.47;;;20.20;63.40;;;;;;7905354;28;20212;-47
2022/03/23 19:45:59;;;;;;;11.95;7.18;;;20.30;63.40;;;;;;7905626;28;20173;-47
2022/03/23 19:49:44;;;;;;;12.85;6.72;;;20.20;63.40;;;;;;7905229;28;20283;-48
2022/03/23 19:53:30;;;;;;;13.25;6.82;;;20.20;63.50;;;;;;7905268;28;20284;-49
2022/03/23 19:57:16;;;;;;;10.00;6.90;;;20.20;63.70;;;;;;7905305;28;20230;-47
2022/03/23 20:01:02;;;;;;;12.40;7.45;;;20.20;63.40;;;;;;7904877;28;20219;-48
2022/03/23 20:04:49;;;;;;;9.50;6.97;;;20.20;63.30;;;;;;7905011;28;20192;-48
2022/03/23 20:08:35;;;;;;;11.85;7.75;;;20.20;63.30;;;;;;7904852;28;20565;-50
2022/03/23 20:12:20;;;;;;;11.30;7.55;;;20.10;63.10;;;;;;7904596;28;20180;-48
2022/03/23 20:16:06;;;;;;;9.40;6.50;;;20.10;63.20;;;;;;7904769;28;20181;-48
2022/03/23 20:19:51;;;;;;;8.55;6.55;;;20.10;63.20;;;;;;7904349;28;20192;-47
2022/03/23 20:23:37;;;;;;;10.45;6.88;;;20.10;63.20;;;;;;7904487;28;20196;-49
2022/03/23 20:27:22;;;;;;;10.90;6.85;;;20.10;63.20;;;;;;7906331;28;20183;-47
2022/03/23 20:31:10;;;;;;;12.57;7.47;;;20.10;63.40;;;;;;7935672;28;20191;-48